Time;durP1;ratioP1;P1;durP2;ratioP2;P2;SDS_P1;SDS_P2;PMS_P1;PMS_P2;Temp;Humidity;BMP_temperature;BMP_pressure;BME280_temperature;BME280_humidity;BME280_pressure;Samples;Min_cycle;Max_cycle;Signal;HPM_P1;HPM_P2
2023/02/27 00:01:45;;;;;;;3.80;1.88;;;;;7.90;102739.00;;;;5071561;28;20648;-73
2023/02/27 00:04:12;;;;;;;2.38;1.50;;;;;7.90;102739.00;;;;5081760;28;20206;-73
2023/02/27 00:06:39;;;;;;;2.83;1.60;;;;;7.90;102737.00;;;;5087894;28;20198;-73
2023/02/27 00:09:07;;;;;;;2.10;1.63;;;;;7.90;102737.00;;;;5086111;28;20198;-73
2023/02/27 00:11:37;;;;;;;2.90;1.50;;;;;7.90;102739.00;;;;5087104;28;20267;-73
2023/02/27 00:14:04;;;;;;;5.80;2.15;;;;;7.90;102746.00;;;;5086835;28;20215;-73
2023/02/27 00:16:32;;;;;;;2.80;1.42;;;;;7.90;102744.00;;;;5076745;28;20230;-73
2023/02/27 00:19:03;;;;;;;2.92;1.40;;;;;7.90;102745.00;;;;5068440;28;20207;-73
2023/02/27 00:21:31;;;;;;;3.35;1.65;;;;;7.80;102735.00;;;;5084837;28;20768;-73
2023/02/27 00:23:58;;;;;;;2.40;1.25;;;;;7.80;102733.00;;;;5086315;28;20210;-73
2023/02/27 00:26:25;;;;;;;2.90;1.20;;;;;7.80;102733.00;;;;5088219;28;20190;-73
2023/02/27 00:28:53;;;;;;;3.47;1.48;;;;;7.80;102739.00;;;;5090153;28;20201;-73
2023/02/27 00:31:20;;;;;;;3.45;1.77;;;;;7.80;102733.00;;;;5088733;28;20981;-73
2023/02/27 00:33:47;;;;;;;4.78;1.80;;;;;7.70;102736.00;;;;5078896;28;20657;-73
2023/02/27 00:36:16;;;;;;;4.03;1.25;;;;;7.70;102738.00;;;;5073648;28;20221;-73
2023/02/27 00:38:43;;;;;;;2.55;1.40;;;;;7.70;102732.00;;;;5071288;28;20183;-73
2023/02/27 00:41:10;;;;;;;3.97;1.60;;;;;7.70;102738.00;;;;5081224;28;20199;-72
2023/02/27 00:43:37;;;;;;;2.22;1.38;;;;;7.60;102742.00;;;;5090042;28;20205;-72
2023/02/27 00:46:05;;;;;;;2.80;1.70;;;;;7.60;102732.00;;;;5091416;28;20191;-72
2023/02/27 00:48:33;;;;;;;1.80;1.33;;;;;7.60;102736.00;;;;5091143;28;20237;-72
2023/02/27 00:51:00;;;;;;;4.35;1.38;;;;;7.50;102723.00;;;;5089344;28;20201;-72
2023/02/27 00:53:28;;;;;;;3.97;1.88;;;;;7.50;102720.00;;;;5090144;28;20225;-72
2023/02/27 00:55:56;;;;;;;3.92;1.23;;;;;7.50;102728.00;;;;5087921;28;20229;-72
2023/02/27 00:58:23;;;;;;;3.08;1.33;;;;;7.50;102722.00;;;;5087265;28;20194;-72
2023/02/27 01:00:50;;;;;;;3.45;1.27;;;;;7.40;102715.00;;;;5086221;28;20205;-73
2023/02/27 01:03:18;;;;;;;3.03;1.45;;;;;7.40;102716.00;;;;5089441;28;20198;-73
2023/02/27 01:05:45;;;;;;;3.05;1.60;;;;;7.40;102722.00;;;;5083864;28;20409;-73
2023/02/27 01:08:12;;;;;;;4.57;1.30;;;;;7.40;102719.00;;;;5090078;28;20437;-73
2023/02/27 01:10:41;;;;;;;4.63;1.40;;;;;7.30;102717.00;;;;5087813;28;20206;-73
2023/02/27 01:13:08;;;;;;;2.60;1.30;;;;;7.30;102720.00;;;;5090374;28;20408;-73
2023/02/27 01:15:35;;;;;;;3.25;1.30;;;;;7.30;102717.00;;;;5090302;28;20202;-73
2023/02/27 01:18:02;;;;;;;2.53;1.40;;;;;7.30;102721.00;;;;5089502;28;20580;-73
2023/02/27 01:20:30;;;;;;;2.17;1.25;;;;;7.20;102723.00;;;;5088353;28;20225;-73
2023/02/27 01:22:57;;;;;;;3.22;1.45;;;;;7.20;102723.00;;;;5086715;28;20697;-73
2023/02/27 01:25:24;;;;;;;2.33;1.20;;;;;7.20;102723.00;;;;5090378;28;20205;-73
2023/02/27 01:27:53;;;;;;;2.58;1.10;;;;;7.10;102727.00;;;;5090179;28;20209;-73
2023/02/27 01:30:20;;;;;;;1.63;0.90;;;;;7.10;102726.00;;;;5090250;28;20202;-73
2023/02/27 01:32:48;;;;;;;3.45;1.30;;;;;7.10;102728.00;;;;5088778;28;20194;-73
2023/02/27 01:35:15;;;;;;;2.28;1.20;;;;;7.10;102726.00;;;;5090415;28;20198;-73
2023/02/27 01:37:43;;;;;;;2.65;1.70;;;;;7.10;102721.00;;;;5088462;28;20244;-73
2023/02/27 01:40:11;;;;;;;3.53;1.42;;;;;7.00;102721.00;;;;5089067;28;20202;-73
2023/02/27 01:42:39;;;;;;;3.45;1.38;;;;;7.00;102727.00;;;;5089037;28;20584;-73
2023/02/27 01:45:29;;;;;;;3.03;1.17;;;;;6.90;102717.00;;;;5089962;28;20668;-73
2023/02/27 01:48:03;;;;;;;2.10;1.15;;;;;6.90;102719.00;;;;5089528;28;20230;-73
2023/02/27 01:50:31;;;;;;;2.85;1.20;;;;;6.90;102730.00;;;;5089049;28;20199;-73
2023/02/27 01:53:01;;;;;;;3.42;1.17;;;;;6.90;102712.00;;;;5088237;28;20213;-72
2023/02/27 01:55:32;;;;;;;1.85;1.15;;;;;6.90;102717.00;;;;5070310;28;20222;-73
2023/02/27 01:58:01;;;;;;;2.95;1.58;;;;;6.90;102714.00;;;;5081213;28;20592;-73
2023/02/27 02:00:29;;;;;;;2.53;1.00;;;;;6.90;102711.00;;;;5089875;28;20209;-73
2023/02/27 02:03:04;;;;;;;2.72;1.10;;;;;6.80;102714.00;;;;5088247;28;20202;-73
2023/02/27 02:05:31;;;;;;;2.38;1.10;;;;;6.80;102716.00;;;;5086260;28;20201;-73
2023/02/27 02:08:00;;;;;;;4.30;1.45;;;;;6.80;102712.00;;;;5075394;28;20719;-73
2023/02/27 02:10:29;;;;;;;2.78;1.15;;;;;6.80;102708.00;;;;5089326;28;20225;-73
2023/02/27 02:12:56;;;;;;;2.72;1.02;;;;;6.80;102715.00;;;;5086185;28;20206;-73
2023/02/27 02:15:37;;;;;;;3.00;1.27;;;;;6.70;102716.00;;;;5069571;28;20199;-73
2023/02/27 02:18:14;;;;;;;3.10;1.40;;;;;6.70;102713.00;;;;5078529;28;20233;-73
2023/02/27 02:21:29;;;;;;;3.15;1.38;;;;;6.60;102704.00;;;;5088602;28;20194;-73
2023/02/27 02:24:33;;;;;;;4.68;1.27;;;;;6.60;102710.00;;;;5083480;28;20489;-73
2023/02/27 02:27:22;;;;;;;1.33;0.93;;;;;6.60;102712.00;;;;5087153;28;20279;-72
2023/02/27 02:30:31;;;;;;;3.13;1.30;;;;;6.50;102710.00;;;;5067323;28;20195;-72
2023/02/27 02:33:20;;;;;;;1.83;1.10;;;;;6.60;102708.00;;;;5084364;28;20263;-72
2023/02/27 02:36:18;;;;;;;4.15;1.08;;;;;6.50;102711.00;;;;5076480;28;20570;-72
2023/02/27 02:39:07;;;;;;;2.38;1.00;;;;;6.50;102712.00;;;;5086695;28;20206;-72
2023/02/27 02:41:45;;;;;;;2.33;0.88;;;;;6.60;102715.00;;;;5087799;28;20603;-72
2023/02/27 02:44:23;;;;;;;3.40;1.20;;;;;6.60;102712.00;;;;5088990;28;20656;-72
2023/02/27 02:47:02;;;;;;;3.22;1.00;;;;;6.60;102712.00;;;;5086925;28;20229;-72
2023/02/27 02:49:35;;;;;;;2.13;1.33;;;;;6.60;102710.00;;;;5086700;28;20198;-72
2023/02/27 02:52:10;;;;;;;2.28;1.10;;;;;6.60;102719.00;;;;5087173;28;20191;-72
2023/02/27 02:54:45;;;;;;;3.13;1.05;;;;;6.60;102717.00;;;;5087807;28;20710;-72
2023/02/27 02:57:15;;;;;;;1.52;1.08;;;;;6.60;102713.00;;;;5087262;28;20593;-72
2023/02/27 02:59:49;;;;;;;1.67;0.90;;;;;6.60;102717.00;;;;5088425;28;20186;-72
2023/02/27 03:02:21;;;;;;;1.60;1.02;;;;;6.60;102717.00;;;;5087070;28;20194;-72
2023/02/27 03:04:53;;;;;;;2.28;0.75;;;;;6.60;102714.00;;;;5087243;28;20202;-72
2023/02/27 03:07:23;;;;;;;2.53;1.33;;;;;6.70;102722.00;;;;5085581;28;20194;-72
2023/02/27 03:09:56;;;;;;;2.58;0.80;;;;;6.70;102718.00;;;;5078539;28;20201;-72
2023/02/27 03:12:25;;;;;;;2.13;0.70;;;;;6.70;102724.00;;;;5086488;28;20209;-72
2023/02/27 03:14:57;;;;;;;1.95;0.80;;;;;6.70;102722.00;;;;5083876;28;20221;-72
2023/02/27 03:17:30;;;;;;;2.15;0.73;;;;;6.70;102722.00;;;;5086421;28;20727;-72
2023/02/27 03:20:02;;;;;;;1.40;0.52;;;;;6.70;102732.00;;;;5087746;28;20209;-72
2023/02/27 03:22:34;;;;;;;3.05;0.90;;;;;6.70;102728.00;;;;5087897;28;20615;-72
2023/02/27 03:25:06;;;;;;;2.35;0.80;;;;;6.70;102719.00;;;;5078808;28;20195;-72
2023/02/27 03:27:38;;;;;;;1.13;0.47;;;;;6.70;102712.00;;;;5080988;28;20210;-72
2023/02/27 03:30:10;;;;;;;2.40;1.08;;;;;6.80;102705.00;;;;5088074;28;20934;-72
2023/02/27 03:32:45;;;;;;;1.45;0.60;;;;;6.70;102712.00;;;;5087825;28;20190;-72
2023/02/27 03:35:13;;;;;;;1.13;0.60;;;;;6.80;102704.00;;;;5086674;28;20209;-72
2023/02/27 03:37:50;;;;;;;2.17;0.70;;;;;6.70;102701.00;;;;5082257;28;20222;-72
2023/02/27 03:40:27;;;;;;;1.92;0.80;;;;;6.70;102706.00;;;;5082482;28;20194;-72
2023/02/27 03:43:02;;;;;;;1.00;0.60;;;;;6.80;102699.00;;;;5087591;28;20667;-73
2023/02/27 03:45:36;;;;;;;1.58;0.52;;;;;6.80;102705.00;;;;5077206;28;20214;-72
2023/02/27 03:48:05;;;;;;;2.80;0.90;;;;;6.80;102703.00;;;;5086663;28;20225;-73
2023/02/27 03:50:33;;;;;;;4.82;1.00;;;;;6.80;102703.00;;;;5085474;28;20570;-73
2023/02/27 03:53:01;;;;;;;3.55;1.13;;;;;6.80;102712.00;;;;5086533;28;20213;-72
2023/02/27 03:55:34;;;;;;;2.78;0.82;;;;;6.80;102705.00;;;;5085918;28;20206;-72
2023/02/27 03:58:02;;;;;;;1.33;0.63;;;;;6.80;102708.00;;;;5084989;28;20214;-73
2023/02/27 04:00:29;;;;;;;2.38;0.90;;;;;6.80;102714.00;;;;5084534;28;20564;-73
2023/02/27 04:02:59;;;;;;;1.63;0.82;;;;;6.80;102713.00;;;;5080205;28;20198;-73
2023/02/27 04:05:28;;;;;;;4.82;1.23;;;;;6.90;102711.00;;;;5091820;28;20214;-72
2023/02/27 04:08:26;;;;;;;3.20;1.13;;;;;6.80;102717.00;;;;5075066;28;20220;-73
2023/02/27 04:11:16;;;;;;;1.83;0.60;;;;;6.80;102719.00;;;;5091962;28;20190;-72
2023/02/27 04:14:17;;;;;;;1.77;0.80;;;;;6.80;102724.00;;;;5090205;28;20225;-73
2023/02/27 04:17:10;;;;;;;0.98;0.70;;;;;6.80;102727.00;;;;5068515;28;20208;-73
2023/02/27 04:19:55;;;;;;;2.25;0.68;;;;;6.80;102727.00;;;;5089505;28;20663;-72
2023/02/27 04:22:32;;;;;;;1.90;0.73;;;;;6.80;102730.00;;;;5084503;28;20699;-72
2023/02/27 04:25:20;;;;;;;2.75;0.73;;;;;6.80;102734.00;;;;5090753;28;20423;-73
2023/02/27 04:27:55;;;;;;;1.58;1.00;;;;;6.80;102735.00;;;;5090697;28;20206;-73
2023/02/27 04:30:29;;;;;;;3.97;0.82;;;;;6.80;102735.00;;;;5091466;28;20194;-72
2023/02/27 04:33:04;;;;;;;1.55;0.63;;;;;6.80;102732.00;;;;5089966;28;20197;-72
2023/02/27 04:35:34;;;;;;;3.42;0.65;;;;;6.80;102737.00;;;;5091743;28;20205;-72
2023/02/27 04:38:13;;;;;;;3.78;1.15;;;;;6.80;102742.00;;;;5089357;28;20221;-72
2023/02/27 04:40:47;;;;;;;1.52;0.70;;;;;6.70;102744.00;;;;5091411;28;20190;-73
2023/02/27 04:43:18;;;;;;;0.68;0.47;;;;;6.70;102742.00;;;;5091237;28;20259;-72
2023/02/27 04:45:48;;;;;;;2.25;0.70;;;;;6.70;102751.00;;;;5090966;28;20190;-73
2023/02/27 04:48:20;;;;;;;1.55;0.75;;;;;6.70;102759.00;;;;5089711;28;20227;-73
2023/02/27 04:50:53;;;;;;;1.95;0.88;;;;;6.70;102757.00;;;;5090683;28;20217;-72
2023/02/27 04:53:25;;;;;;;3.83;1.50;;;;;6.70;102752.00;;;;5090586;28;20205;-72
2023/02/27 04:55:55;;;;;;;3.20;1.42;;;;;6.70;102756.00;;;;5089667;28;20203;-73
2023/02/27 04:58:29;;;;;;;3.80;1.50;;;;;6.70;102759.00;;;;5089727;28;20222;-72
2023/02/27 05:01:01;;;;;;;2.90;1.00;;;;;6.70;102760.00;;;;5089424;28;20702;-73
2023/02/27 05:03:33;;;;;;;1.92;1.05;;;;;6.70;102759.00;;;;5078099;28;20191;-73
2023/02/27 05:06:02;;;;;;;3.05;0.95;;;;;6.70;102764.00;;;;5089301;28;20680;-72
2023/02/27 05:08:34;;;;;;;1.83;0.90;;;;;6.70;102761.00;;;;5085068;28;20202;-73
2023/02/27 05:11:08;;;;;;;3.25;1.08;;;;;6.70;102759.00;;;;5087256;28;20208;-73
2023/02/27 05:13:43;;;;;;;2.40;0.70;;;;;6.70;102760.00;;;;5088774;28;20213;-72
2023/02/27 05:16:17;;;;;;;2.20;0.85;;;;;6.70;102774.00;;;;5089034;28;20190;-72
2023/02/27 05:18:45;;;;;;;1.83;1.30;;;;;6.70;102760.00;;;;5079030;28;20258;-72
2023/02/27 05:21:23;;;;;;;3.78;1.20;;;;;6.60;102764.00;;;;5070366;28;20207;-73
2023/02/27 05:23:58;;;;;;;3.22;0.70;;;;;6.60;102765.00;;;;5074992;28;20190;-73
2023/02/27 05:26:38;;;;;;;0.90;0.68;;;;;6.60;102767.00;;;;5091313;28;20202;-73
2023/02/27 05:29:15;;;;;;;2.17;0.95;;;;;6.60;102772.00;;;;5088692;28;20210;-73
2023/02/27 05:31:50;;;;;;;3.30;1.02;;;;;6.60;102772.00;;;;5070128;28;20206;-73
2023/02/27 05:34:22;;;;;;;3.60;0.95;;;;;6.60;102773.00;;;;5072197;28;20307;-73
2023/02/27 05:36:55;;;;;;;3.22;0.95;;;;;6.50;102775.00;;;;5083043;28;20304;-73
2023/02/27 05:39:25;;;;;;;3.53;1.00;;;;;6.60;102776.00;;;;5090412;28;20218;-72
2023/02/27 05:41:58;;;;;;;2.25;1.02;;;;;6.50;102769.00;;;;5090302;28;20205;-72
2023/02/27 05:44:31;;;;;;;2.85;1.25;;;;;6.50;102773.00;;;;5074107;28;20699;-72
2023/02/27 05:47:04;;;;;;;1.75;1.05;;;;;6.50;102771.00;;;;5090059;28;20232;-73
2023/02/27 05:49:35;;;;;;;2.28;0.93;;;;;6.50;102775.00;;;;5089711;28;20197;-72
2023/02/27 05:52:06;;;;;;;2.58;1.52;;;;;6.50;102773.00;;;;5090177;28;20205;-72
2023/02/27 05:54:38;;;;;;;6.35;1.40;;;;;6.50;102772.00;;;;5071917;28;20921;-73
2023/02/27 05:57:10;;;;;;;2.78;1.38;;;;;6.50;102773.00;;;;5088246;28;20194;-73
2023/02/27 05:59:44;;;;;;;2.78;1.20;;;;;6.40;102776.00;;;;5086503;28;20563;-73
2023/02/27 06:02:12;;;;;;;3.17;1.58;;;;;6.50;102783.00;;;;5072352;28;20190;-73
2023/02/27 06:04:41;;;;;;;1.73;1.13;;;;;6.50;102783.00;;;;5082721;28;20224;-73
2023/02/27 06:07:08;;;;;;;1.98;1.00;;;;;6.50;102787.00;;;;5089736;28;20218;-73
2023/02/27 06:09:36;;;;;;;2.67;1.17;;;;;6.50;102795.00;;;;5088781;28;20191;-72
2023/02/27 06:12:03;;;;;;;3.25;1.10;;;;;6.50;102799.00;;;;5089416;28;20198;-72
2023/02/27 06:14:30;;;;;;;3.90;1.10;;;;;6.50;102804.00;;;;5088690;28;20210;-72
2023/02/27 06:16:59;;;;;;;3.28;1.10;;;;;6.40;102796.00;;;;5085272;28;20202;-73
2023/02/27 06:19:26;;;;;;;2.47;1.10;;;;;6.40;102804.00;;;;5089477;28;20668;-73
2023/02/27 06:21:53;;;;;;;3.60;1.35;;;;;6.40;102808.00;;;;5088829;28;20202;-73
2023/02/27 06:24:21;;;;;;;3.38;1.25;;;;;6.40;102814.00;;;;5083901;28;20198;-73
2023/02/27 06:26:48;;;;;;;2.53;1.45;;;;;6.40;102818.00;;;;5080951;28;20206;-73
2023/02/27 06:29:16;;;;;;;3.78;1.48;;;;;6.40;102817.00;;;;5083881;28;20657;-73
2023/02/27 06:31:43;;;;;;;2.97;1.23;;;;;6.40;102826.00;;;;5084556;28;20186;-73
2023/02/27 06:34:12;;;;;;;4.72;1.55;;;;;6.40;102827.00;;;;5086558;28;20190;-72
2023/02/27 06:36:39;;;;;;;2.13;0.90;;;;;6.40;102836.00;;;;5087358;28;20205;-73
2023/02/27 06:39:07;;;;;;;4.95;1.40;;;;;6.40;102839.00;;;;5078249;28;20225;-72
2023/02/27 06:41:34;;;;;;;3.65;1.38;;;;;6.40;102843.00;;;;5084859;28;20259;-72
2023/02/27 06:44:02;;;;;;;3.95;1.65;;;;;6.40;102843.00;;;;5088008;28;20569;-72
2023/02/27 06:46:29;;;;;;;2.42;0.85;;;;;6.40;102845.00;;;;5087359;28;20201;-72
2023/02/27 06:48:56;;;;;;;3.13;1.20;;;;;6.40;102843.00;;;;5074074;28;20199;-72
2023/02/27 06:51:25;;;;;;;1.63;1.13;;;;;6.40;102854.00;;;;5082454;28;20213;-72
2023/02/27 06:53:52;;;;;;;3.85;1.10;;;;;6.40;102848.00;;;;5087982;28;20209;-73
2023/02/27 06:56:19;;;;;;;1.95;1.15;;;;;6.40;102854.00;;;;5087933;28;20201;-72
2023/02/27 06:58:47;;;;;;;3.25;1.05;;;;;6.40;102846.00;;;;5087843;28;20248;-72
2023/02/27 07:01:14;;;;;;;3.15;1.42;;;;;6.40;102843.00;;;;5087648;28;20206;-72
2023/02/27 07:03:41;;;;;;;2.03;1.27;;;;;6.40;102851.00;;;;5088619;28;20209;-72
2023/02/27 07:06:13;;;;;;;3.03;1.20;;;;;6.40;102850.00;;;;5088940;28;20202;-72
2023/02/27 07:08:41;;;;;;;2.15;1.15;;;;;6.40;102849.00;;;;5081345;28;20194;-72
2023/02/27 07:11:09;;;;;;;3.67;1.20;;;;;6.50;102858.00;;;;5084573;28;20240;-72
2023/02/27 07:13:36;;;;;;;1.58;0.88;;;;;6.50;102848.00;;;;5084375;28;20218;-73
2023/02/27 07:16:04;;;;;;;4.22;1.00;;;;;6.50;102855.00;;;;5085329;28;20194;-73
2023/02/27 07:18:31;;;;;;;2.38;1.27;;;;;6.50;102855.00;;;;5085869;28;20221;-73
2023/02/27 07:20:58;;;;;;;2.80;1.05;;;;;6.60;102854.00;;;;5088259;28;20198;-74
2023/02/27 07:23:25;;;;;;;3.00;0.90;;;;;6.60;102851.00;;;;5088441;28;20190;-73
2023/02/27 07:25:54;;;;;;;4.80;1.23;;;;;6.60;102856.00;;;;5088268;28;20199;-73
2023/02/27 07:28:21;;;;;;;2.45;1.20;;;;;6.60;102850.00;;;;5087048;28;20556;-73
2023/02/27 07:30:49;;;;;;;3.10;1.70;;;;;6.70;102858.00;;;;5086280;28;20205;-73
2023/02/27 07:33:16;;;;;;;2.53;1.20;;;;;6.70;102865.00;;;;5087034;28;20567;-73
2023/02/27 07:35:44;;;;;;;2.38;1.30;;;;;6.80;102855.00;;;;5088120;28;20213;-73
2023/02/27 07:38:11;;;;;;;2.95;1.35;;;;;6.80;102862.00;;;;5091014;28;20687;-73
2023/02/27 07:40:39;;;;;;;3.10;0.95;;;;;6.80;102859.00;;;;5091533;28;20194;-73
2023/02/27 07:43:07;;;;;;;3.28;1.58;;;;;6.90;102868.00;;;;5091380;28;20198;-73
2023/02/27 07:45:35;;;;;;;2.88;1.15;;;;;7.00;102860.00;;;;5090005;28;20194;-73
2023/02/27 07:48:02;;;;;;;5.32;1.30;;;;;7.00;102869.00;;;;5088383;28;20234;-73
2023/02/27 07:50:29;;;;;;;3.88;1.40;;;;;7.10;102859.00;;;;5091818;28;20200;-73
2023/02/27 07:52:57;;;;;;;2.72;1.17;;;;;7.10;102861.00;;;;5088831;28;20201;-73
2023/02/27 07:55:24;;;;;;;2.95;1.45;;;;;7.20;102861.00;;;;5089354;28;20205;-73
2023/02/27 07:57:51;;;;;;;2.20;1.17;;;;;7.20;102859.00;;;;5091125;28;20201;-73
2023/02/27 08:00:21;;;;;;;3.25;1.35;;;;;7.30;102862.00;;;;5075720;28;20194;-73
2023/02/27 08:02:48;;;;;;;2.45;1.23;;;;;7.30;102864.00;;;;5087996;28;20198;-73
2023/02/27 08:05:15;;;;;;;6.55;1.88;;;;;7.40;102870.00;;;;5090191;28;20204;-73
2023/02/27 08:07:42;;;;;;;2.90;1.42;;;;;7.40;102877.00;;;;5091798;28;20193;-73
2023/02/27 08:10:11;;;;;;;3.33;1.10;;;;;7.50;102876.00;;;;5089334;28;20201;-73
2023/02/27 08:12:39;;;;;;;2.50;1.40;;;;;7.50;102881.00;;;;5088572;28;20580;-73
2023/02/27 08:15:07;;;;;;;1.83;1.05;;;;;7.60;102888.00;;;;5092127;28;20224;-73
2023/02/27 08:17:36;;;;;;;1.80;0.80;;;;;7.60;102885.00;;;;5091982;28;20199;-73
2023/02/27 08:20:05;;;;;;;3.45;1.02;;;;;7.70;102884.00;;;;5089151;28;20312;-73
2023/02/27 08:22:33;;;;;;;4.03;1.42;;;;;7.70;102889.00;;;;5091608;28;20194;-74
2023/02/27 08:25:01;;;;;;;3.80;1.35;;;;;7.80;102886.00;;;;5091179;28;20210;-73
2023/02/27 08:27:28;;;;;;;1.67;1.10;;;;;7.80;102891.00;;;;5091671;28;20243;-73
2023/02/27 08:29:55;;;;;;;1.65;0.90;;;;;7.90;102899.00;;;;5087665;28;20206;-73
2023/02/27 08:32:22;;;;;;;1.60;0.70;;;;;7.90;102901.00;;;;5088768;28;20688;-73
2023/02/27 08:34:51;;;;;;;2.28;1.10;;;;;8.00;102897.00;;;;5085648;28;20201;-73
2023/02/27 08:37:18;;;;;;;2.55;1.10;;;;;8.10;102900.00;;;;5087513;28;20193;-73
2023/02/27 08:39:45;;;;;;;2.72;0.88;;;;;8.10;102908.00;;;;5086627;28;20225;-74
2023/02/27 08:42:14;;;;;;;2.10;0.93;;;;;8.20;102909.00;;;;5089837;28;20207;-74
2023/02/27 08:44:41;;;;;;;2.22;1.48;;;;;8.20;102907.00;;;;5089123;28;20198;-74
2023/02/27 08:47:08;;;;;;;2.47;1.30;;;;;8.30;102912.00;;;;5083471;28;20241;-73
2023/02/27 08:49:36;;;;;;;1.92;0.85;;;;;8.40;102917.00;;;;5090733;28;20206;-73
2023/02/27 08:52:04;;;;;;;2.72;1.27;;;;;8.40;102926.00;;;;5086604;28;20207;-73
2023/02/27 08:54:32;;;;;;;1.23;0.80;;;;;8.50;102918.00;;;;5088552;28;20201;-74
2023/02/27 08:56:59;;;;;;;1.58;0.90;;;;;8.60;102920.00;;;;5088446;28;20233;-74
2023/02/27 08:59:26;;;;;;;2.03;1.00;;;;;8.70;102912.00;;;;5090420;28;20751;-74
2023/02/27 09:01:53;;;;;;;2.05;1.25;;;;;8.80;102924.00;;;;5088556;28;20210;-73
2023/02/27 09:04:21;;;;;;;3.78;0.93;;;;;8.80;102917.00;;;;5088155;28;20195;-73
2023/02/27 09:06:48;;;;;;;2.15;0.98;;;;;8.90;102929.00;;;;5083977;28;20206;-73
2023/02/27 09:09:17;;;;;;;2.53;1.15;;;;;9.00;102929.00;;;;5078027;28;20597;-74
2023/02/27 09:11:45;;;;;;;4.18;1.83;;;;;9.10;102927.00;;;;5087304;28;20202;-74
2023/02/27 09:14:12;;;;;;;1.73;0.93;;;;;9.10;102924.00;;;;5088392;28;20218;-73
2023/02/27 09:16:39;;;;;;;2.25;1.20;;;;;9.20;102929.00;;;;5088349;28;20711;-74
2023/02/27 09:19:07;;;;;;;2.13;1.00;;;;;9.30;102926.00;;;;5086047;28;20230;-74
2023/02/27 09:21:36;;;;;;;2.67;1.00;;;;;9.40;102935.00;;;;5087962;28;20193;-74
2023/02/27 09:24:03;;;;;;;4.38;1.40;;;;;9.50;102931.00;;;;5089781;28;20198;-74
2023/02/27 09:26:32;;;;;;;3.35;1.17;;;;;9.50;102928.00;;;;5087236;28;20572;-74
2023/02/27 09:28:59;;;;;;;4.55;1.20;;;;;9.60;102926.00;;;;5088341;28;20210;-75
2023/02/27 09:31:28;;;;;;;4.20;1.20;;;;;9.80;102935.00;;;;5086417;28;20210;-75
2023/02/27 09:33:56;;;;;;;2.13;1.13;;;;;9.90;102938.00;;;;5079621;28;20204;-76
2023/02/27 09:36:23;;;;;;;3.92;1.02;;;;;9.90;102946.00;;;;5088619;28;20222;-76
2023/02/27 09:38:51;;;;;;;3.25;1.00;;;;;10.00;102940.00;;;;5088313;28;20714;-74
2023/02/27 09:41:46;;;;;;;3.30;1.13;;;;;10.10;102939.00;;;;5088017;28;20205;-74
2023/02/27 09:44:23;;;;;;;4.68;1.88;;;;;10.20;102934.00;;;;5088548;28;20194;-75
2023/02/27 09:46:51;;;;;;;4.45;0.90;;;;;10.40;102940.00;;;;5088745;28;20225;-75
2023/02/27 09:49:21;;;;;;;1.55;1.10;;;;;10.40;102931.00;;;;5085581;28;20206;-75
2023/02/27 09:51:51;;;;;;;3.25;1.60;;;;;10.50;102935.00;;;;5070145;28;20217;-75
2023/02/27 09:54:18;;;;;;;1.98;1.00;;;;;10.70;102939.00;;;;5084357;28;20290;-75
2023/02/27 09:56:51;;;;;;;1.70;0.90;;;;;10.70;102932.00;;;;5088884;28;20198;-75
2023/02/27 09:59:29;;;;;;;2.28;1.00;;;;;10.80;102933.00;;;;5088432;28;20226;-74
2023/02/27 10:02:04;;;;;;;3.40;0.93;;;;;10.90;102927.00;;;;5088405;28;20202;-75
2023/02/27 10:04:39;;;;;;;2.22;0.73;;;;;11.00;102927.00;;;;5087985;28;20189;-75
2023/02/27 10:07:15;;;;;;;1.15;0.60;;;;;11.10;102934.00;;;;5083965;28;20524;-75
2023/02/27 10:09:55;;;;;;;1.38;0.55;;;;;11.20;102934.00;;;;5089080;28;20201;-74
2023/02/27 10:12:41;;;;;;;2.35;0.80;;;;;11.30;102943.00;;;;5069952;28;20207;-74
2023/02/27 10:15:15;;;;;;;1.92;0.50;;;;;11.40;102937.00;;;;5080702;28;20241;-75
2023/02/27 10:17:47;;;;;;;2.88;0.77;;;;;11.50;102938.00;;;;5085460;28;20198;-75
2023/02/27 10:20:22;;;;;;;1.55;0.50;;;;;11.60;102943.00;;;;5087937;28;20222;-75
2023/02/27 10:22:52;;;;;;;1.00;0.50;;;;;11.60;102923.00;;;;5088675;28;20205;-75
2023/02/27 10:25:20;;;;;;;1.05;0.40;;;;;11.70;102934.00;;;;5088350;28;20187;-75
2023/02/27 10:27:53;;;;;;;3.30;0.57;;;;;11.80;102931.00;;;;5088882;28;20199;-75
2023/02/27 10:30:23;;;;;;;0.90;0.47;;;;;11.90;102932.00;;;;5086364;28;20194;-75
2023/02/27 10:32:54;;;;;;;1.15;0.60;;;;;12.00;102933.00;;;;5087085;28;20198;-75
2023/02/27 10:35:30;;;;;;;3.65;0.63;;;;;12.00;102932.00;;;;5088794;28;20198;-76
2023/02/27 10:38:01;;;;;;;1.65;0.77;;;;;12.10;102930.00;;;;5087298;28;20198;-75
2023/02/27 10:40:30;;;;;;;1.92;0.90;;;;;12.20;102935.00;;;;5087467;28;20214;-75
2023/02/27 10:43:02;;;;;;;1.77;0.60;;;;;12.20;102937.00;;;;5085831;28;20202;-76
2023/02/27 10:45:29;;;;;;;1.70;0.47;;;;;12.30;102924.00;;;;5084946;28;20583;-75
2023/02/27 10:47:57;;;;;;;0.95;0.47;;;;;12.40;102933.00;;;;5085265;28;20603;-75
2023/02/27 10:50:28;;;;;;;1.55;0.45;;;;;12.50;102927.00;;;;5087950;28;20206;-76
2023/02/27 10:52:57;;;;;;;1.63;0.50;;;;;12.70;102930.00;;;;5086498;28;20857;-76
2023/02/27 10:55:28;;;;;;;0.57;0.50;;;;;12.80;102930.00;;;;5088062;28;20186;-75
2023/02/27 10:57:58;;;;;;;0.73;0.50;;;;;12.90;102934.00;;;;5086033;28;20203;-73
2023/02/27 11:00:33;;;;;;;1.38;0.50;;;;;13.00;102924.00;;;;5087901;28;20218;-73
2023/02/27 11:03:01;;;;;;;0.65;0.30;;;;;13.10;102914.00;;;;5083750;28;20217;-73
2023/02/27 11:05:31;;;;;;;4.15;0.70;;;;;13.20;102925.00;;;;5086319;28;20198;-75
2023/02/27 11:08:13;;;;;;;1.23;0.40;;;;;13.10;102919.00;;;;5088300;28;20201;-74
2023/02/27 11:10:55;;;;;;;1.25;0.38;;;;;13.10;102918.00;;;;5087770;28;20205;-74
2023/02/27 11:13:26;;;;;;;0.75;0.40;;;;;13.20;102916.00;;;;5084354;28;20692;-74
2023/02/27 11:16:06;;;;;;;1.75;0.60;;;;;13.10;102905.00;;;;5082221;28;20531;-74
2023/02/27 11:18:35;;;;;;;2.90;0.93;;;;;13.20;102905.00;;;;5086354;28;20229;-74
2023/02/27 11:21:27;;;;;;;0.50;0.40;;;;;13.10;102891.00;;;;5087174;28;20225;-74
2023/02/27 11:23:58;;;;;;;0.73;0.30;;;;;13.30;102886.00;;;;5061344;28;20194;-74
2023/02/27 11:26:31;;;;;;;1.42;0.40;;;;;13.30;102874.00;;;;5084907;28;20190;-75
2023/02/27 11:29:17;;;;;;;1.88;0.63;;;;;13.20;102878.00;;;;5080298;28;20201;-74
2023/02/27 11:31:48;;;;;;;0.77;0.50;;;;;13.30;102895.00;;;;5082075;28;20206;-74
2023/02/27 11:34:26;;;;;;;0.60;0.32;;;;;13.20;102881.00;;;;5088054;28;20659;-74
2023/02/27 11:36:56;;;;;;;1.65;0.88;;;;;13.30;102883.00;;;;5085575;28;20201;-74
2023/02/27 11:39:28;;;;;;;1.73;0.70;;;;;13.30;102880.00;;;;5086656;28;20592;-74
2023/02/27 11:41:58;;;;;;;1.13;0.45;;;;;13.30;102875.00;;;;5086064;28;20191;-74
2023/02/27 11:44:29;;;;;;;3.80;1.13;;;;;13.40;102873.00;;;;5085949;28;20207;-75
2023/02/27 11:47:15;;;;;;;2.42;0.60;;;;;13.40;102872.00;;;;5086471;28;20242;-74
2023/02/27 11:50:07;;;;;;;0.60;0.30;;;;;13.50;102856.00;;;;5086860;28;20217;-74
2023/02/27 11:52:42;;;;;;;0.57;0.32;;;;;13.60;102850.00;;;;5087436;28;20206;-74
2023/02/27 11:55:16;;;;;;;0.85;0.30;;;;;13.70;102856.00;;;;5074602;28;20213;-74
2023/02/27 11:57:46;;;;;;;0.40;0.30;;;;;13.80;102857.00;;;;5086194;28;20206;-74
2023/02/27 12:00:20;;;;;;;0.50;0.30;;;;;13.90;102858.00;;;;5088051;28;20711;-74
2023/02/27 12:02:56;;;;;;;0.88;0.40;;;;;13.90;102854.00;;;;5087246;28;20209;-74
2023/02/27 12:05:29;;;;;;;1.02;0.40;;;;;13.90;102864.00;;;;5086824;28;20202;-74
2023/02/27 12:08:00;;;;;;;1.20;0.38;;;;;13.90;102853.00;;;;5074566;28;20198;-74
2023/02/27 12:10:30;;;;;;;1.20;0.30;;;;;14.00;102848.00;;;;5086028;28;20207;-74
2023/02/27 12:13:02;;;;;;;1.33;0.22;;;;;14.00;102859.00;;;;5084384;28;20202;-74
2023/02/27 12:15:37;;;;;;;1.42;0.30;;;;;14.00;102846.00;;;;5085126;28;20587;-74
2023/02/27 12:18:13;;;;;;;1.73;0.40;;;;;14.10;102842.00;;;;5084402;28;20548;-74
2023/02/27 12:20:48;;;;;;;4.20;0.50;;;;;14.10;102852.00;;;;5084832;28;20228;-74
2023/02/27 12:23:21;;;;;;;1.40;0.30;;;;;14.10;102851.00;;;;5084722;28;20216;-73
2023/02/27 12:25:52;;;;;;;0.77;0.30;;;;;14.20;102853.00;;;;5083689;28;20198;-74
2023/02/27 12:28:39;;;;;;;0.45;0.20;;;;;14.20;102845.00;;;;5084230;28;20644;-74
2023/02/27 12:31:38;;;;;;;2.13;0.25;;;;;14.20;102843.00;;;;5085146;28;20202;-74
2023/02/27 12:34:15;;;;;;;1.05;0.40;;;;;14.30;102846.00;;;;5087283;28;20190;-74
2023/02/27 12:36:42;;;;;;;0.60;0.30;;;;;14.40;102839.00;;;;5084939;28;20190;-74
2023/02/27 12:39:18;;;;;;;0.60;0.22;;;;;14.40;102839.00;;;;5090866;28;20669;-75